createdAt,value
2019-01-15T00:02:25.201Z,6.00
2019-01-15T00:04:56.400Z,5.98
2019-01-15T00:07:26.171Z,6.01
2019-01-15T00:09:55.920Z,5.88
2019-01-15T00:12:26.756Z,5.88
2019-01-15T00:14:56.625Z,5.77
2019-01-15T00:17:26.382Z,5.70
2019-01-15T00:19:56.217Z,5.54
2019-01-15T00:22:26.206Z,5.46
2019-01-15T00:24:55.968Z,5.38
2019-01-15T00:27:25.779Z,5.33
2019-01-15T00:29:55.535Z,5.38
2019-01-15T00:32:25.450Z,5.38
2019-01-15T00:34:56.348Z,5.18
2019-01-15T00:37:26.140Z,5.14
2019-01-15T00:39:55.867Z,5.15
2019-01-15T00:42:25.764Z,5.16
2019-01-15T00:44:56.552Z,5.19
2019-01-15T00:47:26.334Z,5.23
2019-01-15T00:49:56.109Z,5.11
2019-01-15T00:52:26.108Z,5.07
2019-01-15T00:54:55.914Z,5.01
2019-01-15T00:57:25.793Z,5.06
2019-01-15T00:59:55.563Z,5.17
2019-01-15T01:02:31.950Z,4.91
2019-01-15T01:05:02.415Z,4.94
2019-01-15T01:11:03.045Z,5.11
2019-01-15T01:17:27.312Z,5.05
2019-01-15T01:19:57.350Z,4.98
2019-01-15T01:22:27.110Z,5.01
2019-01-15T01:24:56.902Z,4.96
2019-01-15T01:27:26.716Z,5.03
2019-01-15T01:29:56.488Z,5.05
2019-01-15T01:32:26.279Z,4.84
2019-01-15T01:34:58.628Z,4.84
2019-01-15T01:37:28.389Z,4.90
2019-01-15T01:40:01.420Z,4.77
2019-01-15T01:42:31.738Z,4.73
2019-01-15T01:45:01.563Z,4.63
2019-01-15T01:47:31.362Z,4.82
2019-01-15T01:50:01.298Z,5.15
2019-01-15T01:52:31.035Z,5.05
2019-01-15T01:55:00.854Z,5.04
2019-01-15T01:57:30.833Z,5.08
2019-01-15T02:00:03.053Z,5.11
2019-01-15T02:02:32.995Z,5.04
2019-01-15T02:05:03.053Z,5.16
2019-01-15T02:07:32.867Z,5.20
2019-01-15T02:10:02.899Z,5.19
2019-01-15T02:12:36.779Z,5.30
2019-01-15T02:15:05.783Z,5.46
2019-01-15T02:17:35.654Z,5.51
2019-01-15T02:20:08.326Z,5.58
2019-01-15T02:22:38.086Z,5.64
2019-01-15T02:25:09.399Z,5.67
2019-01-15T02:27:40.705Z,5.57
2019-01-15T02:30:13.496Z,5.55
2019-01-15T02:32:44.310Z,5.57
2019-01-15T02:35:14.127Z,5.53
2019-01-15T02:37:44.100Z,5.58
2019-01-15T02:40:15.493Z,5.59
2019-01-15T02:42:46.834Z,5.66
2019-01-15T02:45:19.912Z,5.71
2019-01-15T02:47:49.731Z,5.75
2019-01-15T02:50:20.834Z,5.86
2019-01-15T02:52:50.632Z,5.95
2019-01-15T02:55:20.834Z,5.82
2019-01-15T02:57:50.683Z,5.73
2019-01-15T03:00:24.688Z,5.76
2019-01-15T03:02:56.244Z,5.80
2019-01-15T03:05:27.643Z,5.74
2019-01-15T03:07:57.404Z,5.76
2019-01-15T03:10:27.175Z,5.71
2019-01-15T03:12:57.122Z,5.69
2019-01-15T03:15:26.894Z,5.70
2019-01-15T03:17:56.686Z,5.67
2019-01-15T03:20:26.532Z,5.72
2019-01-15T03:22:57.815Z,5.66
2019-01-15T03:25:27.690Z,5.55
2019-01-15T03:27:57.455Z,5.47
2019-01-15T03:30:27.392Z,5.28
2019-01-15T03:32:57.057Z,5.30
2019-01-15T03:35:26.821Z,5.11
2019-01-15T03:37:56.687Z,5.05
2019-01-15T03:40:26.712Z,5.11
2019-01-15T03:43:03.188Z,5.21
2019-01-15T03:45:29.014Z,5.29
2019-01-15T03:47:58.773Z,5.44
2019-01-15T03:50:28.556Z,5.51
2019-01-15T03:53:00.409Z,5.52
2019-01-15T03:55:30.149Z,5.39
2019-01-15T03:57:59.971Z,5.24
2019-01-15T04:00:29.772Z,5.19
2019-01-15T04:03:02.985Z,5.10
2019-01-15T04:05:33.779Z,4.95
2019-01-15T04:08:03.770Z,4.90
2019-01-15T04:10:33.547Z,4.88
2019-01-15T04:13:11.001Z,5.02
2019-01-15T04:15:35.061Z,5.10
2019-01-15T04:18:07.856Z,4.98
2019-01-15T04:20:38.723Z,4.79
2019-01-15T04:23:08.618Z,4.69
2019-01-15T04:25:38.403Z,4.63
2019-01-15T04:28:08.223Z,4.79
2019-01-15T04:30:38.180Z,4.82
2019-01-15T04:33:07.922Z,4.80
2019-01-15T04:35:37.748Z,4.81
2019-01-15T04:38:07.547Z,4.68
2019-01-15T04:40:40.699Z,4.60
2019-01-15T04:43:10.568Z,4.83
2019-01-15T04:45:40.371Z,4.84
2019-01-15T04:48:10.089Z,4.85
2019-01-15T04:50:39.935Z,4.61
2019-01-15T04:53:09.690Z,4.39
2019-01-15T04:55:39.487Z,4.36
2019-01-15T04:58:09.371Z,4.32
2019-01-15T05:00:39.146Z,4.36
2019-01-15T05:03:13.394Z,4.49
2019-01-15T05:05:43.391Z,4.57
2019-01-15T05:08:13.227Z,4.49
2019-01-15T05:10:44.654Z,4.48
2019-01-15T05:13:14.455Z,4.32
2019-01-15T05:15:44.209Z,4.51
2019-01-15T05:18:14.003Z,4.35
2019-01-15T05:20:43.803Z,4.18
2019-01-15T05:23:13.711Z,4.23
2019-01-15T05:25:43.586Z,4.21
2019-01-15T05:28:13.352Z,4.02
2019-01-15T05:30:43.499Z,3.91
2019-01-15T05:33:13.430Z,3.69
2019-01-15T05:35:43.217Z,3.45
2019-01-15T05:38:13.009Z,3.34
2019-01-15T05:40:42.855Z,3.37
2019-01-15T05:43:12.600Z,3.21
2019-01-15T05:45:42.747Z,3.11
2019-01-15T05:48:13.904Z,3.26
2019-01-15T05:50:45.440Z,3.44
2019-01-15T05:53:15.326Z,3.40
2019-01-15T05:55:45.127Z,3.19
2019-01-15T05:58:14.818Z,3.23
2019-01-15T06:00:44.704Z,3.34
2019-01-15T06:03:19.383Z,3.52
2019-01-15T06:05:51.058Z,3.64
2019-01-15T06:08:20.858Z,3.84
2019-01-15T06:10:50.686Z,4.33
2019-01-15T06:13:20.575Z,4.43
2019-01-15T06:15:50.453Z,4.44
2019-01-15T06:18:20.198Z,4.35
2019-01-15T06:20:50.011Z,4.42
2019-01-15T06:23:19.803Z,4.46
2019-01-15T06:25:49.609Z,4.22
2019-01-15T06:28:19.746Z,4.03
2019-01-15T06:30:49.610Z,3.87
2019-01-15T06:33:21.397Z,3.76
2019-01-15T06:35:51.179Z,3.81
2019-01-15T06:38:24.001Z,4.00
2019-01-15T06:40:54.309Z,4.25
2019-01-15T06:43:24.041Z,4.33
2019-01-15T06:45:54.320Z,4.37
2019-01-15T06:48:24.201Z,4.22
2019-01-15T06:50:53.962Z,3.96
2019-01-15T06:53:24.091Z,4.05
2019-01-15T06:55:55.582Z,4.10
2019-01-15T06:58:26.741Z,4.24
2019-01-15T07:00:56.519Z,4.41
2019-01-15T07:03:31.081Z,4.64
2019-01-15T07:06:00.941Z,4.71
2019-01-15T07:08:30.722Z,4.84
2019-01-15T07:11:00.638Z,4.99
2019-01-15T07:13:30.993Z,5.07
2019-01-15T07:16:02.598Z,5.34
2019-01-15T07:18:32.359Z,5.83
2019-01-15T07:21:02.173Z,6.23
2019-01-15T07:23:32.052Z,6.74
2019-01-15T07:26:01.912Z,6.44
2019-01-15T07:28:31.759Z,7.11
2019-01-15T07:31:01.893Z,7.13
2019-01-15T07:33:31.624Z,7.16
2019-01-15T07:36:01.384Z,7.30
2019-01-15T07:38:31.259Z,7.55
2019-01-15T07:41:01.074Z,7.76
2019-01-15T07:43:32.721Z,8.16
2019-01-15T07:46:02.696Z,8.59
2019-01-15T07:48:35.113Z,9.13
2019-01-15T07:51:04.849Z,9.86
2019-01-15T07:53:34.723Z,10.39
2019-01-15T07:56:04.895Z,10.99
2019-01-15T07:58:34.771Z,11.30
2019-01-15T08:01:05.166Z,11.62
2019-01-15T08:03:39.247Z,11.81
2019-01-15T08:06:10.008Z,11.92
2019-01-15T08:08:39.815Z,12.23
2019-01-15T08:11:09.647Z,12.30
2019-01-15T08:13:39.522Z,12.71
2019-01-15T08:16:09.298Z,12.63
2019-01-15T08:18:39.077Z,12.71
2019-01-15T08:21:08.961Z,13.26
2019-01-15T08:23:38.708Z,13.73
2019-01-15T08:26:08.502Z,14.09
2019-01-15T08:28:38.381Z,14.47
2019-01-15T08:31:08.140Z,14.64
2019-01-15T08:33:38.000Z,14.70
2019-01-15T08:36:08.315Z,14.58
2019-01-15T08:38:38.996Z,14.50
2019-01-15T08:41:08.785Z,14.13
2019-01-15T08:43:38.910Z,13.87
2019-01-15T08:46:08.682Z,13.83
2019-01-15T08:48:40.136Z,13.85
2019-01-15T08:51:10.370Z,13.68
2019-01-15T08:53:40.559Z,13.67
2019-01-15T08:56:13.178Z,13.60
2019-01-15T08:58:43.512Z,13.79
2019-01-15T09:01:13.558Z,14.19
2019-01-15T09:03:44.546Z,14.69
2019-01-15T09:06:15.559Z,14.89
2019-01-15T09:08:45.430Z,14.91
2019-01-15T09:11:15.202Z,15.15
2019-01-15T09:13:44.998Z,15.23
2019-01-15T09:16:14.813Z,15.18
2019-01-15T09:18:46.425Z,15.21
2019-01-15T09:21:16.307Z,14.97
2019-01-15T09:23:46.143Z,15.50
2019-01-15T09:26:16.773Z,16.04
2019-01-15T09:28:47.841Z,16.13
2019-01-15T09:31:18.659Z,16.68
2019-01-15T09:33:48.495Z,16.51
2019-01-15T09:36:19.197Z,16.89
2019-01-15T09:38:49.164Z,16.83
2019-01-15T09:41:19.069Z,17.14
2019-01-15T09:43:48.853Z,16.85
2019-01-15T09:46:18.754Z,17.31
2019-01-15T09:48:48.608Z,17.25
2019-01-15T09:51:19.514Z,17.58
2019-01-15T09:53:49.622Z,17.96
2019-01-15T09:56:19.397Z,17.59
2019-01-15T09:58:49.208Z,17.38
2019-01-15T10:01:19.698Z,17.95
2019-01-15T10:03:49.481Z,17.56
2019-01-15T10:06:23.326Z,18.01
2019-01-15T10:08:54.250Z,18.30
2019-01-15T10:11:24.364Z,18.94
2019-01-15T10:13:54.470Z,18.99
2019-01-15T10:16:24.305Z,18.96
2019-01-15T10:18:54.202Z,18.56
2019-01-15T10:21:25.283Z,18.89
2019-01-15T10:23:56.864Z,18.97
2019-01-15T10:26:26.666Z,18.92
2019-01-15T10:28:58.107Z,19.05
2019-01-15T10:31:41.157Z,19.37
2019-01-15T10:34:12.884Z,19.36
2019-01-15T10:36:42.631Z,18.95
2019-01-15T10:39:13.436Z,19.14
2019-01-15T10:41:48.165Z,19.14
2019-01-15T10:44:19.988Z,19.16
2019-01-15T10:46:53.982Z,19.14
2019-01-15T10:49:24.953Z,19.42
2019-01-15T10:51:59.905Z,20.07
2019-01-15T10:54:31.226Z,19.26
2019-01-15T10:57:05.500Z,18.67
2019-01-15T10:59:36.045Z,18.52
2019-01-15T11:02:05.995Z,17.84
2019-01-15T11:04:39.881Z,16.38
2019-01-15T11:07:09.915Z,17.12
2019-01-15T11:09:39.665Z,17.10
2019-01-15T11:12:14.696Z,17.28
2019-01-15T11:14:44.781Z,17.74
2019-01-15T11:17:19.224Z,17.79
2019-01-15T11:19:52.145Z,18.23
2019-01-15T11:22:22.679Z,18.46
2019-01-15T11:24:53.216Z,18.42
2019-01-15T11:27:25.218Z,17.92
2019-01-15T11:29:55.726Z,16.62
2019-01-15T11:32:27.904Z,16.78
2019-01-15T11:34:57.978Z,17.01
2019-01-15T11:37:33.365Z,16.84
2019-01-15T11:40:07.560Z,17.30
2019-01-15T11:42:37.639Z,16.57
2019-01-15T11:45:21.422Z,16.13
2019-01-15T11:47:51.997Z,17.07
2019-01-15T11:50:24.510Z,17.21
2019-01-15T11:52:56.397Z,17.21
2019-01-15T11:55:28.204Z,16.25
2019-01-15T11:57:59.244Z,16.60
2019-01-15T12:00:38.360Z,15.42
2019-01-15T12:03:14.951Z,15.53
2019-01-15T12:06:01.408Z,16.01
2019-01-15T12:08:42.120Z,16.01
2019-01-15T12:11:30.830Z,15.55
2019-01-15T12:14:11.249Z,15.28
2019-01-15T12:16:50.189Z,14.85
2019-01-15T12:19:38.893Z,14.69
2019-01-15T12:22:28.795Z,14.53
2019-01-15T12:25:05.943Z,13.71
2019-01-15T12:27:39.994Z,13.71
2019-01-15T12:30:18.044Z,14.18
2019-01-15T12:32:49.397Z,14.72
2019-01-15T12:35:20.960Z,15.16
2019-01-15T12:37:55.263Z,15.22
2019-01-15T12:40:37.187Z,15.24
2019-01-15T12:43:11.503Z,15.32
2019-01-15T12:45:51.885Z,15.71
2019-01-15T12:48:38.117Z,15.95
2019-01-15T12:51:12.556Z,16.46
2019-01-15T12:54:00.051Z,15.96
2019-01-15T12:56:37.519Z,14.91
2019-01-15T12:59:20.906Z,14.90
2019-01-15T13:01:58.425Z,14.73
2019-01-15T13:04:29.759Z,14.44
2019-01-15T13:07:10.542Z,15.01
2019-01-15T13:09:58.745Z,16.01
2019-01-15T13:12:42.113Z,16.45
2019-01-15T13:15:29.280Z,16.61
2019-01-15T13:18:02.284Z,16.92
2019-01-15T13:20:39.643Z,16.79
2019-01-15T13:23:26.027Z,16.55
2019-01-15T13:26:00.038Z,16.21
2019-01-15T13:28:40.526Z,16.20
2019-01-15T13:31:14.997Z,16.34
2019-01-15T13:33:58.417Z,15.65
2019-01-15T13:36:30.615Z,16.02
2019-01-15T13:39:18.263Z,16.00
2019-01-15T13:41:54.476Z,15.18
2019-01-15T13:44:26.130Z,14.35
2019-01-15T13:47:07.827Z,14.50
2019-01-15T13:49:57.596Z,14.12
2019-01-15T13:52:29.307Z,14.77
2019-01-15T13:55:13.230Z,15.51
2019-01-15T13:57:47.497Z,16.31
2019-01-15T14:00:22.374Z,16.74
2019-01-15T14:02:55.494Z,16.72
2019-01-15T14:05:38.814Z,16.70
2019-01-15T14:08:10.134Z,15.35
2019-01-15T14:10:44.448Z,15.35
2019-01-15T14:13:27.677Z,14.97
2019-01-15T14:16:01.848Z,14.91
2019-01-15T14:18:50.174Z,15.20
2019-01-15T14:21:24.388Z,14.98
2019-01-15T14:23:55.684Z,14.34
2019-01-15T14:26:29.922Z,14.71
2019-01-15T14:29:01.237Z,14.82
2019-01-15T14:31:36.655Z,15.02
2019-01-15T14:34:25.225Z,14.71
2019-01-15T14:37:12.933Z,13.93
2019-01-15T14:39:53.172Z,12.89
2019-01-15T14:42:28.009Z,11.87
2019-01-15T14:45:17.701Z,11.15
2019-01-15T14:47:54.812Z,10.60
2019-01-15T14:50:32.531Z,10.29
2019-01-15T14:53:03.943Z,10.10
2019-01-15T14:55:50.203Z,10.03
2019-01-15T14:58:24.375Z,9.95
2019-01-15T15:01:07.855Z,9.84
2019-01-15T15:03:42.177Z,9.83
2019-01-15T15:06:16.232Z,9.65
2019-01-15T15:08:59.682Z,9.44
2019-01-15T15:11:31.795Z,9.09
2019-01-15T15:14:07.423Z,8.85
2019-01-15T15:16:45.520Z,8.64
2019-01-15T15:19:17.388Z,8.50
2019-01-15T15:22:09.344Z,8.35
2019-01-15T15:24:51.463Z,8.24
2019-01-15T15:27:39.317Z,8.47
2019-01-15T15:30:29.551Z,8.60
2019-01-15T15:33:00.863Z,8.26
2019-01-15T15:35:32.789Z,8.04
2019-01-15T15:38:10.100Z,8.89
2019-01-15T15:40:41.544Z,9.51
2019-01-15T15:43:24.693Z,9.81
2019-01-15T15:46:00.110Z,10.02
2019-01-15T15:48:43.188Z,10.09
2019-01-15T15:51:17.707Z,10.10
2019-01-15T15:53:49.052Z,10.08
2019-01-15T15:56:29.252Z,10.04
2019-01-15T15:59:06.551Z,10.02
2019-01-15T16:01:55.859Z,9.98
2019-01-15T16:04:36.935Z,9.97
2019-01-15T16:07:13.149Z,9.99
2019-01-15T16:09:59.370Z,9.99
2019-01-15T16:12:36.058Z,9.97
2019-01-15T16:15:14.738Z,9.96
2019-01-15T16:17:48.957Z,9.92
2019-01-15T16:20:21.008Z,9.89
2019-01-15T16:23:01.067Z,9.85
2019-01-15T16:25:36.511Z,9.82
2019-01-15T16:28:20.425Z,9.80
2019-01-15T16:30:52.069Z,9.79
2019-01-15T16:33:39.883Z,9.72
2019-01-15T16:36:14.027Z,9.71
2019-01-15T16:38:48.639Z,9.72
2019-01-15T16:41:20.202Z,9.67
2019-01-15T16:43:54.375Z,9.67
2019-01-15T16:46:44.188Z,9.71
2019-01-15T16:49:31.290Z,9.71
2019-01-15T16:52:22.927Z,9.66
2019-01-15T16:55:00.863Z,9.65
2019-01-15T16:57:51.091Z,9.59
2019-01-15T17:00:25.771Z,9.46
2019-01-15T17:03:03.664Z,9.36
2019-01-15T17:05:54.937Z,9.25
2019-01-15T17:08:26.264Z,9.15
2019-01-15T17:10:57.718Z,9.28
2019-01-15T17:13:41.326Z,9.28
2019-01-15T17:16:33.601Z,9.21
2019-01-15T17:19:02.497Z,9.01
2019-01-15T17:21:35.775Z,8.94
2019-01-15T17:24:10.638Z,8.90
2019-01-15T17:26:49.356Z,7.90
2019-01-15T17:29:29.864Z,7.38
2019-01-15T17:32:05.549Z,6.97
2019-01-15T17:34:49.698Z,6.28
2019-01-15T17:37:32.405Z,5.57
2019-01-15T17:40:10.713Z,5.12
2019-01-15T17:42:45.268Z,6.49
2019-01-15T17:45:20.592Z,6.11
2019-01-15T17:47:52.032Z,5.88
2019-01-15T17:50:30.444Z,5.54
2019-01-15T17:53:18.388Z,4.98
2019-01-15T17:55:49.722Z,4.60
2019-01-15T17:58:26.857Z,4.61
2019-01-15T18:01:04.168Z,4.26
2019-01-15T18:03:35.839Z,3.91
2019-01-15T18:06:22.625Z,3.85
2019-01-15T18:08:57.145Z,4.34
2019-01-15T18:11:44.970Z,6.66
2019-01-15T18:14:28.493Z,7.59
2019-01-15T18:17:16.547Z,7.76
2019-01-15T18:19:54.441Z,7.22
2019-01-15T18:22:44.105Z,6.67
2019-01-15T18:25:16.062Z,6.22
2019-01-15T18:27:53.059Z,5.75
2019-01-15T18:30:28.771Z,5.48
2019-01-15T18:33:12.229Z,5.49
2019-01-15T18:35:43.941Z,5.38
2019-01-15T18:38:27.592Z,4.92
2019-01-15T18:41:00.788Z,5.28
2019-01-15T18:43:35.107Z,6.07
2019-01-15T18:46:21.593Z,6.66
2019-01-15T18:49:05.646Z,6.88
2019-01-15T18:51:55.229Z,7.09
2019-01-15T18:54:35.857Z,6.46
2019-01-15T18:57:20.687Z,5.34
2019-01-15T18:59:53.603Z,4.73
2019-01-15T19:02:36.663Z,4.32
2019-01-15T19:05:15.373Z,3.86
2019-01-15T19:07:46.925Z,4.20
2019-01-15T19:10:21.232Z,4.39
2019-01-15T19:13:01.757Z,4.21
2019-01-15T19:15:43.019Z,3.99
2019-01-15T19:18:17.331Z,3.62
2019-01-15T19:20:54.564Z,3.30
2019-01-15T19:23:33.064Z,2.98
2019-01-15T19:26:10.530Z,2.81
2019-01-15T19:28:44.894Z,2.67
2019-01-15T19:31:19.173Z,2.69
2019-01-15T19:33:50.881Z,2.54
2019-01-15T19:36:39.685Z,2.50
2019-01-15T19:39:12.801Z,2.56
2019-01-15T19:42:01.179Z,2.86
2019-01-15T19:44:41.732Z,2.74
2019-01-15T19:47:15.755Z,2.72
2019-01-15T19:49:58.189Z,2.61
2019-01-15T19:52:34.013Z,2.44
2019-01-15T19:55:24.937Z,2.44
2019-01-15T19:57:58.995Z,2.58
2019-01-15T20:00:47.203Z,2.69
2019-01-15T20:03:25.388Z,3.89
2019-01-15T20:06:06.478Z,5.00
2019-01-15T20:08:38.693Z,5.35
2019-01-15T20:11:26.587Z,5.65
2019-01-15T20:14:03.649Z,5.66
2019-01-15T20:16:45.754Z,5.73
2019-01-15T20:19:34.879Z,5.63
2019-01-15T20:22:18.489Z,5.76
2019-01-15T20:24:54.362Z,5.83
2019-01-15T20:27:29.822Z,5.89
2019-01-15T20:30:02.688Z,5.37
2019-01-15T20:32:34.197Z,4.89
2019-01-15T20:35:17.456Z,4.52
2019-01-15T20:38:04.934Z,4.15
2019-01-15T20:40:36.243Z,3.36
2019-01-15T20:43:09.337Z,2.61
2019-01-15T20:45:56.754Z,2.16
2019-01-15T20:48:30.958Z,2.48
2019-01-15T20:51:11.346Z,3.28
2019-01-15T20:53:45.401Z,4.24
2019-01-15T20:56:16.725Z,5.25
2019-01-15T20:58:48.198Z,4.92
2019-01-15T21:01:35.593Z,4.29
2019-01-15T21:04:10.583Z,3.37
2019-01-15T21:06:55.022Z,2.79
2019-01-15T21:09:29.215Z,2.59
2019-01-15T21:12:05.632Z,4.11
2019-01-15T21:14:38.602Z,5.07
2019-01-15T21:17:12.963Z,5.19
2019-01-15T21:19:48.869Z,5.40
2019-01-15T21:22:28.294Z,5.43
2019-01-15T21:25:06.780Z,5.54
2019-01-15T21:27:55.849Z,5.43
2019-01-15T21:30:39.527Z,5.41
2019-01-15T21:33:26.688Z,5.31
2019-01-15T21:35:58.049Z,5.25
2019-01-15T21:38:45.339Z,5.33
2019-01-15T21:41:16.791Z,5.24
2019-01-15T21:43:48.111Z,4.85
2019-01-15T21:46:20.227Z,4.32
2019-01-15T21:49:07.761Z,3.91
2019-01-15T21:51:45.417Z,4.57
2019-01-15T21:54:18.289Z,5.44
2019-01-15T21:56:56.847Z,5.72
2019-01-15T21:59:41.477Z,5.76
2019-01-15T22:02:21.526Z,5.61
2019-01-15T22:04:52.858Z,5.24
2019-01-15T22:07:41.843Z,5.35
2019-01-15T22:10:19.716Z,5.59
2019-01-15T22:12:57.213Z,5.73
2019-01-15T22:15:28.599Z,5.64
2019-01-15T22:18:12.193Z,5.58
2019-01-15T22:20:49.420Z,5.16
2019-01-15T22:23:39.217Z,4.68
2019-01-15T22:26:21.654Z,3.87
2019-01-15T22:29:00.179Z,3.73
2019-01-15T22:31:31.707Z,4.26
2019-01-15T22:34:10.431Z,4.90
2019-01-15T22:36:54.068Z,5.34
2019-01-15T22:39:31.683Z,5.63
2019-01-15T22:42:12.894Z,5.69
2019-01-15T22:44:44.275Z,5.67
2019-01-15T22:47:23.556Z,5.54
2019-01-15T22:50:11.106Z,5.66
2019-01-15T22:52:49.241Z,5.74
2019-01-15T22:55:26.742Z,5.48
2019-01-15T22:58:10.072Z,5.24
2019-01-15T23:01:00.584Z,5.19
2019-01-15T23:03:48.703Z,4.95
2019-01-15T23:06:37.998Z,4.65
2019-01-15T23:09:16.646Z,4.54
2019-01-15T23:12:08.781Z,4.36
2019-01-15T23:14:53.280Z,4.41
2019-01-15T23:17:30.654Z,4.35
2019-01-15T23:20:18.403Z,4.19
2019-01-15T23:23:05.762Z,3.73
2019-01-15T23:25:37.600Z,3.73
2019-01-15T23:28:15.326Z,3.82
2019-01-15T23:30:46.793Z,3.88
2019-01-15T23:33:35.263Z,3.83
2019-01-15T23:36:16.287Z,3.55
2019-01-15T23:38:57.173Z,2.87
2019-01-15T23:41:48.252Z,2.06
2019-01-15T23:44:20.259Z,1.63
2019-01-15T23:46:58.167Z,2.08
2019-01-15T23:49:47.141Z,2.83
2019-01-15T23:52:24.554Z,3.66
2019-01-15T23:55:08.146Z,4.18
2019-01-15T23:57:46.418Z,4.43
